createdAt,value
2019-02-14T00:00:48.298Z,4.73
2019-02-14T00:03:16.952Z,5.50
2019-02-14T00:05:45.658Z,4.90
2019-02-14T00:08:14.351Z,4.80
2019-02-14T00:10:43.241Z,4.60
2019-02-14T00:13:11.900Z,4.27
2019-02-14T00:15:40.567Z,4.67
2019-02-14T00:18:09.266Z,4.77
2019-02-14T00:20:37.938Z,4.17
2019-02-14T00:23:06.645Z,4.13
2019-02-14T00:25:35.308Z,3.97
2019-02-14T00:28:04.019Z,4.90
2019-02-14T00:30:32.688Z,4.43
2019-02-14T00:33:01.457Z,4.50
2019-02-14T00:35:30.126Z,4.50
2019-02-14T00:37:58.916Z,4.70
2019-02-14T00:40:27.582Z,4.13
2019-02-14T00:42:56.265Z,4.33
2019-02-14T00:45:24.921Z,5.13
2019-02-14T00:47:53.615Z,4.33
2019-02-14T00:50:22.287Z,3.90
2019-02-14T00:52:51.019Z,4.50
2019-02-14T00:55:19.718Z,4.60
2019-02-14T00:57:50.023Z,4.57
2019-02-14T01:00:18.920Z,4.17
2019-02-14T01:02:47.598Z,4.27
2019-02-14T01:05:16.557Z,4.20
2019-02-14T01:07:45.332Z,4.10
2019-02-14T01:10:14.054Z,4.30
2019-02-14T01:12:42.735Z,4.17
2019-02-14T01:15:11.458Z,5.30
2019-02-14T01:17:40.124Z,4.70
2019-02-14T01:20:08.921Z,4.30
2019-02-14T01:22:37.591Z,4.40
2019-02-14T01:25:06.984Z,4.27
2019-02-14T01:27:35.712Z,4.60
2019-02-14T01:30:06.722Z,4.50
2019-02-14T01:32:35.448Z,4.97
2019-02-14T01:35:05.771Z,4.77
2019-02-14T01:37:34.548Z,4.10
2019-02-14T01:40:03.431Z,4.20
2019-02-14T01:42:32.135Z,4.20
2019-02-14T01:45:00.808Z,4.47
2019-02-14T01:47:29.486Z,5.30
2019-02-14T01:49:58.180Z,4.13
2019-02-14T01:52:27.053Z,4.40
2019-02-14T01:54:55.758Z,4.97
2019-02-14T01:57:24.454Z,3.90
2019-02-14T01:59:53.299Z,5.10
2019-02-14T02:02:22.011Z,4.50
2019-02-14T02:04:52.597Z,4.73
2019-02-14T02:07:21.306Z,4.43
2019-02-14T02:09:50.014Z,5.70
2019-02-14T02:12:18.780Z,5.33
2019-02-14T02:14:47.553Z,6.70
2019-02-14T02:17:16.214Z,4.57
2019-02-14T02:19:45.018Z,4.53
2019-02-14T02:22:13.694Z,4.33
2019-02-14T02:24:42.388Z,3.87
2019-02-14T02:27:11.096Z,4.53
2019-02-14T02:29:39.743Z,4.00
2019-02-14T02:32:08.551Z,3.83
2019-02-14T02:34:37.311Z,4.07
2019-02-14T02:37:06.088Z,4.40
2019-02-14T02:39:34.773Z,4.43
2019-02-14T02:42:03.492Z,4.47
2019-02-14T02:44:32.189Z,5.67
2019-02-14T02:47:00.843Z,5.90
2019-02-14T02:49:29.590Z,5.80
2019-02-14T02:51:58.317Z,5.50
2019-02-14T02:54:27.027Z,5.60
2019-02-14T02:56:55.731Z,4.63
2019-02-14T02:59:24.395Z,5.07
2019-02-14T03:01:53.095Z,5.30
2019-02-14T03:04:21.911Z,4.53
2019-02-14T03:06:53.059Z,5.50
2019-02-14T03:09:21.851Z,5.20
2019-02-14T03:11:50.522Z,4.70
2019-02-14T03:14:19.220Z,4.80
2019-02-14T03:16:47.894Z,4.73
2019-02-14T03:19:16.625Z,5.20
2019-02-14T03:21:45.482Z,4.77
2019-02-14T03:24:14.322Z,4.90
2019-02-14T03:26:43.146Z,5.87
2019-02-14T03:29:11.830Z,5.20
2019-02-14T03:31:40.555Z,5.23
2019-02-14T03:34:09.228Z,4.80
2019-02-14T03:36:37.958Z,4.80
2019-02-14T03:39:07.214Z,5.20
2019-02-14T03:41:35.901Z,5.40
2019-02-14T03:44:04.766Z,6.13
2019-02-14T03:46:33.491Z,4.67
2019-02-14T03:49:02.135Z,4.90
2019-02-14T03:51:30.836Z,4.53
2019-02-14T03:53:59.491Z,4.67
2019-02-14T03:56:28.205Z,5.03
2019-02-14T03:58:56.863Z,5.17
2019-02-14T04:01:25.629Z,4.43
2019-02-14T04:03:54.378Z,4.20
2019-02-14T04:06:27.432Z,4.10
2019-02-14T04:08:53.503Z,5.60
2019-02-14T04:11:22.219Z,5.13
2019-02-14T04:13:50.923Z,5.17
2019-02-14T04:16:19.626Z,4.90
2019-02-14T04:18:48.602Z,3.97
2019-02-14T04:21:17.329Z,5.50
2019-02-14T04:23:46.002Z,4.80
2019-02-14T04:26:14.656Z,5.10
2019-02-14T04:28:43.364Z,6.00
2019-02-14T04:31:12.033Z,4.90
2019-02-14T04:33:40.729Z,4.60
2019-02-14T04:36:09.394Z,5.73
2019-02-14T04:38:38.075Z,4.60
2019-02-14T04:41:06.764Z,4.60
2019-02-14T04:43:35.442Z,5.87
2019-02-14T04:46:04.261Z,5.00
2019-02-14T04:48:33.172Z,5.00
2019-02-14T04:51:01.827Z,3.63
2019-02-14T04:53:30.531Z,4.23
2019-02-14T04:55:59.199Z,5.67
2019-02-14T04:58:27.886Z,3.80
2019-02-14T05:00:56.556Z,4.20
2019-02-14T05:03:25.272Z,3.80
2019-02-14T05:05:53.948Z,4.40
2019-02-14T05:08:22.673Z,3.50
2019-02-14T05:10:51.358Z,4.57
2019-02-14T05:13:20.049Z,3.97
2019-02-14T05:15:48.756Z,4.00
2019-02-14T05:18:17.423Z,4.13
2019-02-14T05:20:46.132Z,4.20
2019-02-14T05:23:14.803Z,4.30
2019-02-14T05:25:43.482Z,4.70
2019-02-14T05:28:12.181Z,4.30
2019-02-14T05:30:41.022Z,4.50
2019-02-14T05:33:09.754Z,5.90
2019-02-14T05:35:38.496Z,4.70
2019-02-14T05:38:07.169Z,4.30
2019-02-14T05:40:35.847Z,4.20
2019-02-14T05:43:04.558Z,4.40
2019-02-14T05:45:33.251Z,4.83
2019-02-14T05:48:01.926Z,5.17
2019-02-14T05:50:30.615Z,4.90
2019-02-14T05:52:59.304Z,4.53
2019-02-14T05:55:28.069Z,4.63
2019-02-14T05:57:56.748Z,5.20
2019-02-14T06:00:25.443Z,5.07
2019-02-14T06:02:54.115Z,5.07
2019-02-14T06:05:22.815Z,5.73
2019-02-14T06:07:51.554Z,5.20
2019-02-14T06:10:20.284Z,5.70
2019-02-14T06:12:49.085Z,4.67
2019-02-14T06:15:17.762Z,5.17
2019-02-14T06:17:46.467Z,4.50
2019-02-14T06:20:15.154Z,4.10
2019-02-14T06:22:43.835Z,4.57
2019-02-14T06:25:13.503Z,4.20
2019-02-14T06:27:42.207Z,4.10
2019-02-14T06:30:13.474Z,4.17
2019-02-14T06:32:47.623Z,4.30
2019-02-14T06:35:21.163Z,4.00
2019-02-14T06:37:50.208Z,4.60
2019-02-14T06:40:18.931Z,3.80
2019-02-14T06:42:47.623Z,3.93
2019-02-14T06:45:17.838Z,4.30
2019-02-14T06:47:46.573Z,3.97
2019-02-14T06:50:15.306Z,4.60
2019-02-14T06:52:43.974Z,5.40
2019-02-14T06:55:12.694Z,4.53
2019-02-14T06:57:41.409Z,5.47
2019-02-14T07:00:17.779Z,4.30
2019-02-14T07:02:46.828Z,4.00
2019-02-14T07:05:15.495Z,4.30
2019-02-14T07:07:44.216Z,3.70
2019-02-14T07:10:13.184Z,4.63
2019-02-14T07:12:41.890Z,4.60
2019-02-14T07:15:12.650Z,5.80
2019-02-14T07:17:41.366Z,4.60
2019-02-14T07:20:12.720Z,4.30
2019-02-14T07:22:41.402Z,3.80
2019-02-14T07:25:11.695Z,4.17
2019-02-14T07:27:40.404Z,4.00
2019-02-14T07:30:20.531Z,4.53
2019-02-14T07:32:49.220Z,5.03
2019-02-14T07:35:17.908Z,4.80
2019-02-14T07:37:46.599Z,4.50
2019-02-14T07:40:15.820Z,4.97
2019-02-14T07:42:44.484Z,4.97
2019-02-14T07:45:20.516Z,6.17
2019-02-14T07:47:49.323Z,5.10
2019-02-14T07:50:18.030Z,5.13
2019-02-14T07:52:46.725Z,6.53
2019-02-14T07:55:15.505Z,4.90
2019-02-14T07:57:44.287Z,5.33
2019-02-14T08:00:15.929Z,5.10
2019-02-14T08:02:44.652Z,5.30
2019-02-14T08:05:13.354Z,4.67
2019-02-14T08:07:42.063Z,5.80
2019-02-14T08:10:15.315Z,5.40
2019-02-14T08:12:54.837Z,4.20
2019-02-14T08:15:28.858Z,5.30
2019-02-14T08:17:57.647Z,4.20
2019-02-14T08:20:26.360Z,4.67
2019-02-14T08:22:55.098Z,4.97
2019-02-14T08:25:23.873Z,5.93
2019-02-14T08:27:52.654Z,6.07
2019-02-14T08:30:21.600Z,6.13
2019-02-14T08:32:50.462Z,5.47
2019-02-14T08:35:19.245Z,5.13
2019-02-14T08:37:47.922Z,5.67
2019-02-14T08:40:19.662Z,5.90
2019-02-14T08:42:48.374Z,5.57
2019-02-14T08:45:17.059Z,4.53
2019-02-14T08:47:45.808Z,4.87
2019-02-14T08:50:14.475Z,4.70
2019-02-14T08:52:43.187Z,5.00
2019-02-14T08:55:11.866Z,4.83
2019-02-14T08:57:40.886Z,4.93
2019-02-14T09:00:15.283Z,5.10
2019-02-14T09:02:44.024Z,4.73
2019-02-14T09:07:54.166Z,5.23
2019-02-14T09:10:18.168Z,5.50
2019-02-14T09:12:46.866Z,5.60
2019-02-14T09:15:15.828Z,5.23
2019-02-14T09:17:44.628Z,5.87
2019-02-14T09:20:18.397Z,5.27
2019-02-14T09:22:47.135Z,5.80
2019-02-14T09:25:15.819Z,5.93
2019-02-14T09:27:44.729Z,5.37
2019-02-14T09:30:14.308Z,4.93
2019-02-14T09:32:42.979Z,5.17
2019-02-14T09:35:11.887Z,6.20
2019-02-14T09:37:40.614Z,6.03
2019-02-14T09:40:14.562Z,5.43
2019-02-14T09:42:43.269Z,5.63
2019-02-14T09:45:13.569Z,5.70
2019-02-14T09:47:42.418Z,4.70
2019-02-14T09:50:12.980Z,5.73
2019-02-14T09:52:42.602Z,6.23
2019-02-14T09:55:13.336Z,5.70
2019-02-14T09:57:42.038Z,4.87
2019-02-14T10:00:16.573Z,7.60
2019-02-14T10:02:45.291Z,3.90
2019-02-14T10:05:15.319Z,4.83
2019-02-14T10:07:44.036Z,3.93
2019-02-14T10:10:15.507Z,4.40
2019-02-14T10:12:44.310Z,4.40
2019-02-14T10:15:15.757Z,3.60
2019-02-14T10:17:44.535Z,4.50
2019-02-14T10:20:15.901Z,3.90
2019-02-14T10:22:45.764Z,3.47
2019-02-14T10:25:15.964Z,4.60
2019-02-14T10:27:44.637Z,3.93
2019-02-14T10:30:21.803Z,3.63
2019-02-14T10:32:50.884Z,3.60
2019-02-14T10:35:19.575Z,3.90
2019-02-14T10:37:48.284Z,3.87
2019-02-14T10:40:18.869Z,4.70
2019-02-14T10:42:49.160Z,3.37
2019-02-14T10:45:19.740Z,5.20
2019-02-14T10:47:48.726Z,4.10
2019-02-14T10:50:17.570Z,3.70
2019-02-14T10:52:46.564Z,3.50
2019-02-14T10:55:16.298Z,3.10
2019-02-14T10:57:45.309Z,3.40
2019-02-14T11:00:25.587Z,4.10
2019-02-14T11:02:55.800Z,3.90
2019-02-14T11:05:25.627Z,3.90
2019-02-14T11:07:54.308Z,3.70
2019-02-14T11:10:23.700Z,3.53
2019-02-14T11:12:52.415Z,3.33
2019-02-14T11:15:24.903Z,3.33
2019-02-14T11:17:53.809Z,3.23
2019-02-14T11:20:22.494Z,3.67
2019-02-14T11:22:51.203Z,2.90
2019-02-14T11:25:39.337Z,2.30
2019-02-14T11:28:08.021Z,3.50
2019-02-14T11:30:37.231Z,2.37
2019-02-14T11:33:05.943Z,2.70
2019-02-14T11:35:34.617Z,2.33
2019-02-14T11:38:06.851Z,3.00
2019-02-14T11:40:35.539Z,1.90
2019-02-14T11:43:04.253Z,2.87
2019-02-14T11:45:33.532Z,2.23
2019-02-14T11:48:02.235Z,1.93
2019-02-14T11:50:31.161Z,1.23
2019-02-14T11:52:59.840Z,1.10
2019-02-14T11:55:28.547Z,2.10
2019-02-14T11:57:57.317Z,1.93
2019-02-14T12:00:27.380Z,2.30
2019-02-14T12:02:56.479Z,1.07
2019-02-14T12:05:25.457Z,1.43
2019-02-14T12:07:54.131Z,1.67
2019-02-14T12:10:22.871Z,1.20
2019-02-14T12:12:51.542Z,1.87
2019-02-14T12:15:23.152Z,1.37
2019-02-14T12:17:51.557Z,0.67
2019-02-14T12:20:20.248Z,1.23
2019-02-14T12:22:48.927Z,1.47
2019-02-14T12:25:26.516Z,1.23
2019-02-14T12:27:55.275Z,1.10
2019-02-14T12:30:23.973Z,1.47
2019-02-14T12:32:52.652Z,1.40
2019-02-14T12:35:21.349Z,1.63
2019-02-14T12:37:50.036Z,1.67
2019-02-14T12:40:18.722Z,1.67
2019-02-14T12:42:47.878Z,1.23
2019-02-14T12:45:21.620Z,1.20
2019-02-14T12:47:50.241Z,1.30
2019-02-14T12:50:20.966Z,2.10
2019-02-14T12:52:51.321Z,1.73
2019-02-14T12:55:22.506Z,0.97
2019-02-14T12:57:51.251Z,1.13
2019-02-14T13:00:24.304Z,1.80
2019-02-14T13:02:53.084Z,1.17
2019-02-14T13:05:21.792Z,1.87
2019-02-14T13:07:54.362Z,1.53
2019-02-14T13:10:23.151Z,1.33
2019-02-14T13:12:51.823Z,1.40
2019-02-14T13:15:22.857Z,1.50
2019-02-14T13:17:51.573Z,1.30
2019-02-14T13:20:20.251Z,1.60
2019-02-14T13:22:48.976Z,1.47
2019-02-14T13:25:17.677Z,1.43
2019-02-14T13:27:46.394Z,2.13
2019-02-14T13:30:23.890Z,4.53
2019-02-14T13:32:52.645Z,1.80
2019-02-14T13:35:21.324Z,1.60
2019-02-14T13:37:50.072Z,3.17
2019-02-14T13:40:18.795Z,1.47
2019-02-14T13:42:47.472Z,1.47
2019-02-14T13:45:19.188Z,1.27
2019-02-14T13:47:47.874Z,2.00
2019-02-14T13:50:16.734Z,1.27
2019-02-14T13:52:45.507Z,1.70
2019-02-14T13:55:14.458Z,1.60
2019-02-14T13:57:43.160Z,1.13
2019-02-14T14:00:20.988Z,1.77
2019-02-14T14:02:49.681Z,1.17
2019-02-14T14:05:18.599Z,1.53
2019-02-14T14:07:47.275Z,1.27
2019-02-14T14:10:15.972Z,2.10
2019-02-14T14:12:44.667Z,0.80
2019-02-14T14:15:13.568Z,1.93
2019-02-14T14:17:42.327Z,1.83
2019-02-14T14:20:11.306Z,1.23
2019-02-14T14:22:40.011Z,0.90
2019-02-14T14:25:11.229Z,1.30
2019-02-14T14:27:39.911Z,1.77
2019-02-14T14:30:13.801Z,1.20
2019-02-14T14:32:42.495Z,1.40
2019-02-14T14:35:11.778Z,1.23
2019-02-14T14:37:40.866Z,0.80
2019-02-14T14:40:14.713Z,1.20
2019-02-14T14:42:51.029Z,1.17
2019-02-14T14:45:22.105Z,1.50
2019-02-14T14:47:50.814Z,1.20
2019-02-14T14:50:19.812Z,0.93
2019-02-14T14:52:48.544Z,1.23
2019-02-14T14:55:17.414Z,1.37
2019-02-14T14:57:46.154Z,1.00
2019-02-14T15:00:14.898Z,1.10
2019-02-14T15:02:43.647Z,1.40
2019-02-14T15:05:12.332Z,1.13
2019-02-14T15:07:41.014Z,1.63
2019-02-14T15:10:09.727Z,1.00
2019-02-14T15:12:38.403Z,1.10
2019-02-14T15:15:08.102Z,1.33
2019-02-14T15:17:36.794Z,1.30
2019-02-14T15:20:10.223Z,1.43
2019-02-14T15:22:38.935Z,2.47
2019-02-14T15:25:08.219Z,1.93
2019-02-14T15:27:37.000Z,2.10
2019-02-14T15:30:07.050Z,2.40
2019-02-14T15:32:35.754Z,1.50
2019-02-14T15:35:05.028Z,1.23
2019-02-14T15:37:33.715Z,2.20
2019-02-14T15:40:09.309Z,1.83
2019-02-14T15:42:32.830Z,2.10
2019-02-14T15:45:01.523Z,2.60
2019-02-14T15:47:30.902Z,2.13
2019-02-14T15:49:59.702Z,2.37
2019-02-14T15:52:29.629Z,3.70
2019-02-14T15:54:59.918Z,2.10
2019-02-14T15:57:28.979Z,2.00
2019-02-14T15:59:57.677Z,1.73
2019-02-14T16:02:28.437Z,1.37
2019-02-14T16:04:56.783Z,1.20
2019-02-14T16:07:25.497Z,2.07
2019-02-14T16:09:54.209Z,2.10
2019-02-14T16:12:23.019Z,2.07
2019-02-14T16:14:51.688Z,2.63
2019-02-14T16:17:20.382Z,2.97
2019-02-14T16:19:49.078Z,4.60
2019-02-14T16:22:19.544Z,4.80
2019-02-14T16:24:48.420Z,4.83
2019-02-14T16:27:17.292Z,5.10
2019-02-14T16:29:47.242Z,5.90
2019-02-14T16:32:16.389Z,5.97
2019-02-14T16:34:45.085Z,5.33
2019-02-14T16:37:13.811Z,5.47
2019-02-14T16:39:51.348Z,5.43
2019-02-14T16:42:12.929Z,4.37
2019-02-14T16:44:41.686Z,5.20
2019-02-14T16:47:10.373Z,4.77
2019-02-14T16:49:39.118Z,4.50
2019-02-14T16:52:07.789Z,3.53
2019-02-14T16:54:36.489Z,3.60
2019-02-14T16:57:05.166Z,3.10
2019-02-14T16:59:33.895Z,4.63
2019-02-14T17:02:02.655Z,4.20
2019-02-14T17:04:31.371Z,3.10
2019-02-14T17:07:00.075Z,4.73
2019-02-14T17:09:28.808Z,4.07
2019-02-14T17:11:57.490Z,4.53
2019-02-14T17:14:26.211Z,3.60
2019-02-14T17:16:54.875Z,3.87
2019-02-14T17:19:23.639Z,5.53
2019-02-14T17:21:52.357Z,7.22
2019-02-14T17:24:21.129Z,6.17
2019-02-14T17:26:52.023Z,4.53
2019-02-14T17:29:20.688Z,3.83
2019-02-14T17:31:49.493Z,4.40
2019-02-14T17:34:18.200Z,3.23
2019-02-14T17:36:46.929Z,4.20
2019-02-14T17:39:15.669Z,3.70
2019-02-14T17:41:44.482Z,4.10
2019-02-14T17:44:13.172Z,4.00
2019-02-14T17:46:41.886Z,3.80
2019-02-14T17:49:10.587Z,3.97
2019-02-14T17:51:39.294Z,3.70
2019-02-14T17:54:07.964Z,3.67
2019-02-14T17:56:36.696Z,4.20
2019-02-14T17:59:05.388Z,3.67
2019-02-14T18:01:34.092Z,4.77
2019-02-14T18:04:02.775Z,3.47
2019-02-14T18:06:31.705Z,3.80
2019-02-14T18:09:00.398Z,7.07
2019-02-14T18:11:29.124Z,7.23
2019-02-14T18:13:58.044Z,3.27
2019-02-14T18:16:26.758Z,4.73
2019-02-14T18:18:55.543Z,3.03
2019-02-14T18:21:24.510Z,3.37
2019-02-14T18:23:53.243Z,3.00
2019-02-14T18:26:21.960Z,2.80
2019-02-14T18:28:50.691Z,3.97
2019-02-14T18:31:19.362Z,3.77
2019-02-14T18:33:48.072Z,4.30
2019-02-14T18:36:16.747Z,3.77
2019-02-14T18:38:45.439Z,3.70
2019-02-14T18:41:14.157Z,4.13
2019-02-14T18:43:42.858Z,3.30
2019-02-14T18:46:11.535Z,3.10
2019-02-14T18:48:40.237Z,3.63
2019-02-14T18:51:08.955Z,3.83
2019-02-14T18:53:37.670Z,3.30
2019-02-14T18:56:06.490Z,3.10
2019-02-14T18:58:35.204Z,3.10
2019-02-14T19:01:03.955Z,3.30
2019-02-14T19:03:32.674Z,3.03
2019-02-14T19:06:01.350Z,5.13
2019-02-14T19:08:30.059Z,3.33
2019-02-14T19:10:58.739Z,3.53
2019-02-14T19:13:27.553Z,3.60
2019-02-14T19:15:56.281Z,3.60
2019-02-14T19:18:25.014Z,3.43
2019-02-14T19:20:53.818Z,3.50
2019-02-14T19:23:24.291Z,3.80
2019-02-14T19:25:52.948Z,3.40
2019-02-14T19:28:21.697Z,3.00
2019-02-14T19:30:50.421Z,2.70
2019-02-14T19:33:20.320Z,2.70
2019-02-14T19:35:49.091Z,2.80
2019-02-14T19:38:17.855Z,2.47
2019-02-14T19:40:46.633Z,2.40
2019-02-14T19:43:15.415Z,3.20
2019-02-14T19:45:44.160Z,3.10
2019-02-14T19:48:12.889Z,2.40
2019-02-14T19:50:41.568Z,2.80
2019-02-14T19:53:10.357Z,3.70
2019-02-14T19:55:39.033Z,3.17
2019-02-14T19:58:07.719Z,3.33
2019-02-14T20:00:36.481Z,3.20
2019-02-14T20:03:05.225Z,3.73
2019-02-14T20:05:33.914Z,4.13
2019-02-14T20:08:02.663Z,3.67
2019-02-14T20:10:31.395Z,3.60
2019-02-14T20:13:00.134Z,3.40
2019-02-14T20:15:36.692Z,2.87
2019-02-14T20:17:59.317Z,3.77
2019-02-14T20:20:28.023Z,3.33
2019-02-14T20:22:56.698Z,3.60
2019-02-14T20:25:27.879Z,4.20
2019-02-14T20:27:56.586Z,4.50
2019-02-14T20:30:25.359Z,3.30
2019-02-14T20:33:03.879Z,3.33
2019-02-14T20:35:25.128Z,3.30
2019-02-14T20:37:53.828Z,3.50
2019-02-14T20:40:22.511Z,3.70
2019-02-14T20:42:51.209Z,4.10
2019-02-14T20:45:19.913Z,2.97
2019-02-14T20:47:48.820Z,3.50
2019-02-14T20:50:17.620Z,3.40
2019-02-14T20:52:46.322Z,4.93
2019-02-14T20:55:20.770Z,4.40
2019-02-14T20:57:49.818Z,4.60
2019-02-14T21:00:20.077Z,4.60
2019-02-14T21:02:48.752Z,4.97
2019-02-14T21:05:17.565Z,4.87
2019-02-14T21:07:46.280Z,5.40
2019-02-14T21:10:15.165Z,4.23
2019-02-14T21:12:43.855Z,4.83
2019-02-14T21:15:12.664Z,5.40
2019-02-14T21:17:41.379Z,4.67
2019-02-14T21:20:12.974Z,4.50
2019-02-14T21:22:41.704Z,5.87
2019-02-14T21:25:10.875Z,4.87
2019-02-14T21:27:39.651Z,5.57
2019-02-14T21:30:16.892Z,4.93
2019-02-14T21:32:45.661Z,6.13
2019-02-14T21:35:14.492Z,5.50
2019-02-14T21:37:43.191Z,5.50
2019-02-14T21:40:16.496Z,9.03
2019-02-14T21:42:45.300Z,10.83
2019-02-14T21:45:15.131Z,7.70
2019-02-14T21:47:43.864Z,11.80
2019-02-14T21:50:13.866Z,8.00
2019-02-14T21:52:42.899Z,8.90
2019-02-14T21:55:15.856Z,8.33
2019-02-14T21:57:44.543Z,7.40
2019-02-14T22:00:16.210Z,5.87
2019-02-14T22:02:45.412Z,5.57
2019-02-14T22:05:14.142Z,4.70
2019-02-14T22:07:42.977Z,5.17
2019-02-14T22:10:13.120Z,5.80
2019-02-14T22:12:43.252Z,6.60
2019-02-14T22:15:17.637Z,6.50
2019-02-14T22:17:46.358Z,5.23
2019-02-14T22:20:15.163Z,5.63
2019-02-14T22:22:43.830Z,4.73
2019-02-14T22:25:12.686Z,4.50
2019-02-14T22:27:41.555Z,5.30
2019-02-14T22:30:13.249Z,5.77
2019-02-14T22:32:41.942Z,6.20
2019-02-14T22:35:10.665Z,6.57
2019-02-14T22:37:39.358Z,7.07
2019-02-14T22:40:10.328Z,6.30
2019-02-14T22:42:46.505Z,5.37
2019-02-14T22:45:13.368Z,6.03
2019-02-14T22:47:41.727Z,5.53
2019-02-14T22:50:10.897Z,5.00
2019-02-14T22:52:39.805Z,5.33
2019-02-14T22:55:10.180Z,5.73
2019-02-14T22:57:39.580Z,4.80
2019-02-14T23:00:33.652Z,5.70
2019-02-14T23:03:02.368Z,6.37
2019-02-14T23:05:31.040Z,5.20
2019-02-14T23:07:59.772Z,5.53
2019-02-14T23:10:28.487Z,5.37
2019-02-14T23:12:57.155Z,5.20
2019-02-14T23:15:25.888Z,6.13
2019-02-14T23:17:54.583Z,5.67
2019-02-14T23:20:23.273Z,5.83
2019-02-14T23:22:52.026Z,6.03
2019-02-14T23:25:20.772Z,5.17
2019-02-14T23:27:49.477Z,6.00
2019-02-14T23:30:18.169Z,5.90
2019-02-14T23:32:46.959Z,5.77
2019-02-14T23:35:15.627Z,5.27
2019-02-14T23:37:44.347Z,5.13
2019-02-14T23:40:13.057Z,5.73
2019-02-14T23:42:41.803Z,5.47
2019-02-14T23:45:10.768Z,5.80
2019-02-14T23:47:39.482Z,5.07
2019-02-14T23:50:10.577Z,5.47
2019-02-14T23:52:39.271Z,6.10
2019-02-14T23:55:08.848Z,5.50
2019-02-14T23:57:37.547Z,5.30
